Hundvaag 1 weather for May 2009
Month no. 263
Obs.
Da.
Temp. Dew Point Precip. Wind
Speed
Wind gusts Cloud cover Press. Humidity Wind dir. Sunny OPT
01.05.2009 9,0 6,6 0,0 0,0 0,0 6 1027,3 85,0 45,0 1 77,5 %
02.05.2009 11,2 7,3 1,5 14,8 15,1 10 1024,6 77,0 135,0 1 80,0 %
03.05.2009 8,5 5,1 0,0 0,0 1,3 7 1025,3 79,0 180,0 1 80,0 %
04.05.2009 7,5 4,4 3,5 13,0 13,0 0 1019,9 81,0 337,5 1 52,5 %
05.05.2009 8,8 6,4 14,0 11,9 11,9 5 1009,4 85,0 270,0 1 57,5 %
06.05.2009 6,3 3,6 2,5 5,6 5,6 2 1003,6 83,0 337,5 1 62,5 %
07.05.2009 9,8 7,9 8,0 9,3 9,5 2 1000,2 88,0 247,5   57,5 %
08.05.2009 9,6 6,3 0,3 7,4 7,6 1 1000,6 80,0 202,5 1 60,0 %
09.05.2009 10,5 7,7 3,6 5,6 5,6 10 1009,4 83,0 180,0 1 85,0 %
10.05.2009 7,6 5,1 6,5 5,6 6,1 5 1013,4 84,0 292,5 1 67,5 %
11.05.2009 8,1 -0,2 0,1 16,7 16,7 6 1027,7 56,0 337,5 1 67,5 %
12.05.2009 6,5 4,2 0,0 5,0 9,3 4 1024,9 85,0 0,0 1 67,5 %
13.05.2009 6,1 4,9 0,0 0,0 0,0 10 1021,9 92,0 22,5 1 85,0 %
14.05.2009 9,5 5,8 0,0 1,9 2,9 1 1026,3 78,0 22,5 1 65,0 %
15.05.2009 13,0 1,9 1,4 13,0 13,0 10 1023,9 47,0 67,5 1 85,0 %
16.05.2009 15,3 -0,1 0,0 25,9 25,9 10 1017,2 35,0 90,0 1 77,5 %
17.05.2009 12,4 3,8 0,0 18,5 18,5 3 1018,8 56,0 180,0 1 60,0 %
18.05.2009 11,4 5,7 0,1 5,6 5,6 2 1013,4 68,0 157,5 1 67,5 %
19.05.2009 10,1 8,7 1,1 7,9 9,3 10 1010,0 91,0 135,0 1 85,0 %
20.05.2009 10,2 7,1 2,3 0,0 6,4 3 1015,1 81,0 157,5 1 72,5 %
21.05.2009 10,2 9,8 1,1 0,0 11,3 3 1012,8 97,0 180,0 1 72,5 %
22.05.2009 8,7 8,2 11,9 0,0 3,2 0 1005,0 97,0 157,5   55,0 %
23.05.2009 10,2 8,9 1,6 1,6 6,4 4 1014,4 92,0 315,0 1 75,0 %
24.05.2009 10,5 9,4 0,4 0,0 1,6 0 1012,1 93,0 157,5   65,0 %
25.05.2009 9,5 7,9 0,0 0,0 6,4 5 1017,5 90,0 157,5 1 75,0 %
26.05.2009 12,4 9,2 0,0 1,9 1,9 2 1011,1 81,0 112,5 1 70,0 %
27.05.2009 9,7 6,9 16,4 11,1 11,1 4 1010,4 83,0 270,0 1 52,5 %
28.05.2009 8,5 5,4 5,5 18,5 18,5 7 1017,2 81,0 292,5 1 65,0 %
29.05.2009 13,8 9,1 0,0 0,0 0,0 9 1036,8 73,0 90,0 1 90,0 %
30.05.2009 22,8 11,5 0,0 0,0 0,0 10 1039,2 49,0 315,0 1 100,0 %
31.05.2009 17,7 10,3 0,0 3,7 4,2 10 1036,5 62,0 45,0 1 95,0 %
Avrg/Sum 10,5 6,4 81,8 6,6 8,0 5,2 1017,6 77,8 177,1 28 71,9 %